Nashville, Tennessee
Traffic Map
Current Weather Conditions
Nashville, Tennessee
Clear
Clear
24°
Feels Like: 24°
Wind Chill: 24° Ceiling: Unl
Heat Index: 24° Visibility: 10mi
Dew Point: 22° Wind: 0mph
Humidity: 87% Direction: ° ()
Pressure: 30.03in Gusts: 0mph
Raw Report DataKBNA 260953Z 00000KT 10SM CLR 24/22 A3003 RMK AO2 SLP160 T02390217
Traffic Incident Summary
Active as of:
Severity:
Category:
InformationThere was an issue retrieving the traffic information for this location. Please try a different location or try again shortly.
Advertisements
Track Severe Weather on mobile